createdAt,value
2019-05-22T00:06:16.194Z,16.23
2019-05-22T00:16:22.714Z,16.23
2019-05-22T00:26:29.359Z,19.60
2019-05-22T00:36:35.155Z,16.00
2019-05-22T00:46:42.235Z,17.20
2019-05-22T00:56:51.857Z,23.87
2019-05-22T01:06:58.648Z,21.70
2019-05-22T01:17:04.995Z,20.40
2019-05-22T01:27:12.913Z,27.27
2019-05-22T01:37:21.434Z,29.20
2019-05-22T01:47:33.858Z,28.70
2019-05-22T01:57:39.316Z,27.70
2019-05-22T02:07:46.430Z,35.33
2019-05-22T02:17:52.761Z,38.70
2019-05-22T02:27:59.361Z,42.17
2019-05-22T02:38:06.878Z,45.93
2019-05-22T02:48:14.275Z,53.07
2019-05-22T02:58:21.467Z,55.57
2019-05-22T03:08:58.649Z,62.97
2019-05-22T03:19:08.971Z,62.03
2019-05-22T03:29:15.715Z,68.07
2019-05-22T03:39:22.698Z,73.50
2019-05-22T03:49:30.976Z,70.40
2019-05-22T03:59:37.142Z,69.70
2019-05-22T04:09:45.320Z,66.47
2019-05-22T04:19:52.089Z,59.03
2019-05-22T04:29:57.840Z,59.80
2019-05-22T04:40:24.687Z,64.40
2019-05-22T04:50:33.105Z,73.97
2019-05-22T05:00:38.791Z,62.83
2019-05-22T05:10:48.087Z,69.30
2019-05-22T05:20:57.038Z,75.37
2019-05-22T05:31:03.322Z,69.83
2019-05-22T05:41:08.966Z,61.03
2019-05-22T05:51:20.544Z,66.50
2019-05-22T06:01:30.802Z,47.57
2019-05-22T06:11:56.630Z,36.30
2019-05-22T06:22:02.517Z,32.13
2019-05-22T06:32:21.194Z,31.77
2019-05-22T06:42:28.180Z,34.87
2019-05-22T06:52:36.676Z,31.13
2019-05-22T07:02:42.503Z,16.43
2019-05-22T07:12:50.750Z,13.63
2019-05-22T07:22:55.705Z,13.07
2019-05-22T07:33:01.288Z,12.90
2019-05-22T07:43:07.778Z,15.87
2019-05-22T07:53:13.862Z,11.07
2019-05-22T08:03:20.217Z,13.37
2019-05-22T08:13:26.868Z,12.20
2019-05-22T08:23:32.794Z,10.20
2019-05-22T08:33:39.630Z,12.17
2019-05-22T08:44:15.481Z,11.03
2019-05-22T08:53:53.397Z,6.93
2019-05-22T09:03:58.920Z,7.90
2019-05-22T09:14:04.528Z,16.63
2019-05-22T09:24:13.483Z,7.80
2019-05-22T09:34:19.704Z,8.23
2019-05-22T09:44:25.309Z,7.87
2019-05-22T09:54:31.661Z,9.90
2019-05-22T10:04:39.585Z,8.43
2019-05-22T10:14:45.357Z,10.57
2019-05-22T10:24:52.033Z,11.77
2019-05-22T10:34:57.997Z,12.67
2019-05-22T10:45:03.513Z,15.80
2019-05-22T10:55:10.314Z,7.17
2019-05-22T11:05:17.118Z,9.20
2019-05-22T11:15:24.111Z,9.53
2019-05-22T11:25:29.876Z,12.07
2019-05-22T11:35:36.084Z,24.63
2019-05-22T11:45:45.142Z,17.13
2019-05-22T11:55:52.449Z,5.63
2019-05-22T12:06:00.032Z,5.00
2019-05-22T12:16:06.114Z,7.57
2019-05-22T12:26:12.344Z,4.33
2019-05-22T12:36:18.548Z,9.93
2019-05-22T12:46:24.578Z,6.47
2019-05-22T12:56:30.973Z,5.63
2019-05-22T13:06:37.258Z,13.37
2019-05-22T13:16:48.898Z,11.93
2019-05-22T13:26:52.713Z,13.57
2019-05-22T13:36:58.433Z,12.63
2019-05-22T13:47:05.688Z,9.87
2019-05-22T13:57:11.733Z,7.33
2019-05-22T14:07:18.115Z,6.40
2019-05-22T14:17:23.673Z,9.13
2019-05-22T14:27:29.434Z,15.97
2019-05-22T14:37:35.810Z,33.10
2019-05-22T14:47:41.314Z,37.23
2019-05-22T14:57:47.865Z,25.93
2019-05-22T15:07:55.246Z,36.30
2019-05-22T15:18:01.347Z,30.67
2019-05-22T15:28:08.203Z,31.60
2019-05-22T15:38:16.639Z,25.63
2019-05-22T15:48:31.354Z,24.70
2019-05-22T15:58:37.651Z,29.83
2019-05-22T16:08:43.754Z,25.17
2019-05-22T16:18:52.402Z,27.47
2019-05-22T16:28:58.695Z,25.50
2019-05-22T16:39:07.074Z,25.13
2019-05-22T16:49:14.273Z,29.90
2019-05-22T16:59:20.959Z,34.13
2019-05-22T17:09:28.525Z,30.90
2019-05-22T17:19:34.321Z,24.20
2019-05-22T17:29:40.032Z,23.20
2019-05-22T17:39:47.161Z,21.03
2019-05-22T17:49:53.637Z,16.30
2019-05-22T17:59:59.685Z,14.83
2019-05-22T18:10:12.227Z,10.63
2019-05-22T18:20:19.550Z,14.93
2019-05-22T18:30:27.035Z,17.70
2019-05-22T18:40:32.751Z,16.90
2019-05-22T18:50:39.914Z,18.83
2019-05-22T19:00:47.376Z,17.70
2019-05-22T19:10:53.252Z,13.63
2019-05-22T19:20:59.021Z,17.80
2019-05-22T19:31:05.037Z,17.87
2019-05-22T19:41:11.753Z,20.73
2019-05-22T19:51:19.908Z,16.83
2019-05-22T20:01:26.491Z,14.07
2019-05-22T20:11:32.079Z,19.20
2019-05-22T20:21:38.266Z,15.90
2019-05-22T20:31:44.115Z,16.80
2019-05-22T20:41:49.701Z,14.60
2019-05-22T20:51:55.356Z,13.93
2019-05-22T21:02:01.235Z,17.60
2019-05-22T21:12:08.821Z,14.63
2019-05-22T21:22:17.461Z,12.00
2019-05-22T21:32:23.986Z,15.63
2019-05-22T21:42:30.958Z,8.43
2019-05-22T21:52:37.070Z,11.23
2019-05-22T22:02:46.999Z,12.73
2019-05-22T22:12:54.636Z,13.57
2019-05-22T22:23:00.221Z,19.60
2019-05-22T22:39:41.945Z,11.00
2019-05-22T22:49:49.314Z,11.10
2019-05-22T23:05:17.276Z,9.40
2019-05-22T23:45:06.558Z,12.73
2019-05-22T23:55:13.035Z,12.93
